Springfield, MO (65801)

4:30 AM CDT on August 28, 2014 (GMT -0500)
Southview Estates | Change Station
CLOSE
Current Station
Personal Weather Station
Location: Springfield, MO
Elevation: 1191 ft
Nearby Weather Stations

Elev 1191 ft 37.12 °N, 93.33 °W | Updated 20 minutes ago

Clear
Clear
71.8 °F
Feels Like 70 °F
N
0.0
Wind Variable Wind from ESE
Gusts 0.0 mph

Today
High -- | Low -- °F
--% Chance of Precip.
Yesterday
High -- | Low -- °F
Precip. -- in
6:40 AM 7:47 PM
Waxing Crescent, 7% visible
Pressure 29.99 in
Visibility 10.0 miles
Clouds Few 11000 ft
Heat Index 70 °F
Dew Point 68 °F
Humidity 87%
Rainfall 0.00 in
Snow Depth Not available.
UV 0 out of 12
Pollen 10.90 out of 12
Air Quality Not available.
Flu Activity Not available.
METAR KSGF 280852Z 16007KT 10SM FEW110 24/21 A3003 RMK AO2 SLP154 T02390206 55005

More Conditions Fewer Conditions

Pressure 29.99 in
Visibility 10.0 miles
Clouds Few 11000 ft
Heat Index 70 °F
Dew Point 68 °F
Humidity 87%
Rainfall 0.00 in
Snow Depth Not available.
UV 0 out of 12
Pollen 10.90 out of 12
Air Quality Not available.
Flu Activity Not available.
METAR KSGF 280852Z 16007KT 10SM FEW110 24/21 A3003 RMK AO2 SLP154 T02390206 55005

More Conditions Fewer Conditions

10-Day Weather Forecast

Almanac

Astronomy

Aug. 28, 2014 Rise Set
Actual Time 6:40 AM CDT 7:47 PM CDT
Civil Twilight 6:13 AM CDT 8:14 PM CDT
Nautical Twilight 5:41 AM CDT 8:46 PM CDT
Astronomical Twilight 5:08 AM CDT 9:19 PM CDT
Moon 9:28 AM CDT 9:17 PM CDT
Length of Visible Light 14h 00m
Length of Day
13h 06m
Tomorrow will be 2m 15s shorter.
Waxing Crescent, 7% of the Moon is Illuminated
Today
Waxing Crescent
Sep 2
First Quarter
Sep 8
Full
Sep 15
Last Quarter
Sep 24
New

Today's Extremes

State Highs State Lows

Community

WunderPhotos

Upload Photos

1,747,918 photos uploaded!

Nearby

Air Quality

  Air Quality AQ Index Pollutant
Yesterday Good
PM10
Yesterday Good
OZONE
Thursday Moderate
OZONE
Thursday Moderate
PM2.5
Friday Moderate
PM2.5
Friday Good
OZONE
Saturday Moderate
PM2.5
Saturday Good
OZONE
Sunday Good
OZONE
Sunday Good
PM2.5
Monday Good
OZONE
Monday Good
PM2.5

Snow Depth

Station Depth Elevation
No new snow has been reported.

Earthquake Activity

City Distance Mag. Time & Date
No recent earthquake activity has been reported nearby.
Minimum magnitude displayed is 2.5.

Coastal Water Temperatures

Place Temperature
No Stations Reporting

Nearby Weather Stations